Time;durP1;ratioP1;P1;durP2;ratioP2;P2;SDS_P1;SDS_P2;PMS_P1;PMS_P2;Temp;Humidity;BMP_temperature;BMP_pressure;BME280_temperature;BME280_humidity;BME280_pressure;Samples;Min_cycle;Max_cycle;Signal;HPM_P1;HPM_P2
2022/11/16 00:01:26;;;;;;;3.90;3.60;;;;;;;;;;5037959;28;20253;-70
2022/11/16 00:03:54;;;;;;;3.75;3.45;;;;;;;;;;5037065;28;20214;-70
2022/11/16 00:06:22;;;;;;;3.65;3.35;;;;;;;;;;5037550;28;20651;-70
2022/11/16 00:11:36;;;;;;;4.82;3.45;;;;;;;;;;5036456;28;20257;-70
2022/11/16 00:14:04;;;;;;;3.70;3.40;;;;;;;;;;5037623;28;20247;-70
2022/11/16 00:16:34;;;;;;;3.50;3.20;;;;;;;;;;5037396;28;20229;-70
2022/11/16 00:19:03;;;;;;;3.67;3.38;;;;;;;;;;5037294;28;20213;-70
2022/11/16 00:21:31;;;;;;;3.80;3.50;;;;;;;;;;5037217;28;20271;-70
2022/11/16 00:23:58;;;;;;;3.80;3.50;;;;;;;;;;5037378;28;20213;-70
2022/11/16 00:26:26;;;;;;;3.80;3.50;;;;;;;;;;5037311;28;20212;-70
2022/11/16 00:28:54;;;;;;;3.47;3.17;;;;;;;;;;5037557;28;20206;-70
2022/11/16 00:31:22;;;;;;;3.70;3.40;;;;;;;;;;5037093;28;20205;-70
2022/11/16 00:33:51;;;;;;;3.33;3.05;;;;;;;;;;5037585;28;20209;-70
2022/11/16 00:36:19;;;;;;;3.30;3.10;;;;;;;;;;5037134;28;20205;-70
2022/11/16 00:38:47;;;;;;;3.83;3.53;;;;;;;;;;5037709;28;20201;-70
2022/11/16 00:41:15;;;;;;;3.50;3.20;;;;;;;;;;5037721;28;20497;-70
2022/11/16 00:43:43;;;;;;;3.15;2.90;;;;;;;;;;5037332;28;20253;-70
2022/11/16 00:46:11;;;;;;;3.40;3.10;;;;;;;;;;5037215;28;20206;-70
2022/11/16 00:48:39;;;;;;;3.88;3.47;;;;;;;;;;5037186;28;20206;-70
2022/11/16 00:51:08;;;;;;;3.00;2.80;;;;;;;;;;5037091;28;20296;-70
2022/11/16 00:53:36;;;;;;;3.13;2.92;;;;;;;;;;5036834;28;20217;-70
2022/11/16 00:56:03;;;;;;;3.25;3.00;;;;;;;;;;5039947;28;20206;-70
2022/11/16 00:58:31;;;;;;;3.45;3.25;;;;;;;;;;5040792;28;20295;-70
2022/11/16 01:01:04;;;;;;;3.15;2.95;;;;;;;;;;5041490;28;20612;-70
2022/11/16 01:03:31;;;;;;;3.40;3.10;;;;;;;;;;5041321;28;20245;-70
2022/11/16 01:06:01;;;;;;;3.08;2.83;;;;;;;;;;5040854;28;20296;-70
2022/11/16 01:08:30;;;;;;;3.15;2.88;;;;;;;;;;5040738;28;20194;-70
2022/11/16 01:12:07;;;;;;;3.65;3.35;;;;;;;;;;5040887;28;20236;-70
2022/11/16 01:13:45;;;;;;;3.22;3.03;;;;;;;;;;5040824;28;20220;-70
2022/11/16 01:16:15;;;;;;;3.53;3.22;;;;;;;;;;5041431;28;20263;-70
2022/11/16 01:18:42;;;;;;;3.30;3.10;;;;;;;;;;5040565;28;20626;-70
2022/11/16 01:21:10;;;;;;;2.92;2.72;;;;;;;;;;5040851;28;20657;-70
2022/11/16 01:23:39;;;;;;;3.42;3.13;;;;;;;;;;5040609;28;20617;-70
2022/11/16 01:26:07;;;;;;;3.08;2.88;;;;;;;;;;5040883;28;20704;-70
2022/11/16 01:28:35;;;;;;;2.90;2.70;;;;;;;;;;5040754;28;20575;-70
2022/11/16 01:31:03;;;;;;;2.92;2.72;;;;;;;;;;5040693;28;20214;-70
2022/11/16 01:33:30;;;;;;;3.13;2.83;;;;;;;;;;5040616;28;20206;-70
2022/11/16 01:35:58;;;;;;;2.90;2.70;;;;;;;;;;5040459;28;20206;-70
2022/11/16 01:38:26;;;;;;;3.25;3.00;;;;;;;;;;5040658;28;20229;-70
2022/11/16 01:40:55;;;;;;;3.13;2.90;;;;;;;;;;5040579;28;20213;-70
2022/11/16 01:43:24;;;;;;;2.90;2.70;;;;;;;;;;5040395;28;20205;-70
2022/11/16 01:45:51;;;;;;;3.00;2.80;;;;;;;;;;5040702;28;20237;-70
2022/11/16 01:48:23;;;;;;;3.13;2.92;;;;;;;;;;5040350;28;20267;-69
2022/11/16 01:50:51;;;;;;;3.30;3.00;;;;;;;;;;5040051;28;20205;-70
2022/11/16 01:53:18;;;;;;;2.97;2.78;;;;;;;;;;5040119;28;20255;-70
2022/11/16 01:55:47;;;;;;;2.80;2.60;;;;;;;;;;5040083;28;20214;-70
2022/11/16 01:58:24;;;;;;;2.80;2.60;;;;;;;;;;5039876;28;20221;-70
2022/11/16 02:00:52;;;;;;;2.90;2.70;;;;;;;;;;5020315;28;20213;-70
2022/11/16 02:03:20;;;;;;;3.13;2.80;;;;;;;;;;5020481;28;20261;-70
2022/11/16 02:05:55;;;;;;;2.97;2.60;;;;;;;;;;5020289;28;20206;-70
2022/11/16 02:11:24;;;;;;;3.00;2.80;;;;;;;;;;5019867;28;20196;-70
2022/11/16 02:13:57;;;;;;;2.70;2.50;;;;;;;;;;5019780;28;20496;-70
2022/11/16 02:16:29;;;;;;;2.67;2.47;;;;;;;;;;5020119;28;20210;-70
2022/11/16 02:19:01;;;;;;;2.88;2.67;;;;;;;;;;5019942;28;20288;-70
2022/11/16 02:21:36;;;;;;;2.83;2.63;;;;;;;;;;5019632;28;20213;-70
2022/11/16 02:24:07;;;;;;;2.60;2.40;;;;;;;;;;5020013;28;20517;-70
2022/11/16 02:26:45;;;;;;;2.70;2.50;;;;;;;;;;5019826;28;20228;-71
2022/11/16 02:29:20;;;;;;;2.90;2.60;;;;;;;;;;5020068;28;20304;-70
2022/11/16 02:31:51;;;;;;;2.72;2.53;;;;;;;;;;5020055;28;20205;-70
2022/11/16 02:34:20;;;;;;;3.35;2.70;;;;;;;;;;5019998;28;20206;-70
2022/11/16 02:36:49;;;;;;;3.17;2.60;;;;;;;;;;5019366;28;20217;-71
2022/11/16 02:39:19;;;;;;;3.80;2.70;;;;;;;;;;5019794;28;20300;-70
2022/11/16 02:41:49;;;;;;;2.60;2.40;;;;;;;;;;5019601;28;20206;-70
2022/11/16 02:44:20;;;;;;;2.78;2.58;;;;;;;;;;5019353;28;20214;-70
2022/11/16 02:46:51;;;;;;;2.95;2.75;;;;;;;;;;5019318;28;20214;-70
2022/11/16 02:49:20;;;;;;;2.70;2.50;;;;;;;;;;5019133;28;20206;-70
2022/11/16 02:51:48;;;;;;;2.63;2.42;;;;;;;;;;5019483;28;20206;-70
2022/11/16 02:54:17;;;;;;;2.55;2.35;;;;;;;;;;5019381;28;20282;-70
2022/11/16 02:56:50;;;;;;;2.78;2.50;;;;;;;;;;5019568;28;20211;-70
2022/11/16 02:59:19;;;;;;;3.00;2.70;;;;;;;;;;5027512;28;20268;-70
2022/11/16 03:01:49;;;;;;;2.85;2.65;;;;;;;;;;5039084;28;20205;-70
2022/11/16 03:04:19;;;;;;;2.80;2.60;;;;;;;;;;5038817;28;20216;-70
2022/11/16 03:06:47;;;;;;;2.40;2.20;;;;;;;;;;5039218;28;20214;-70
2022/11/16 03:09:19;;;;;;;2.75;2.42;;;;;;;;;;5038867;28;20202;-70
2022/11/16 03:11:59;;;;;;;2.50;2.30;;;;;;;;;;5038737;28;20205;-70
2022/11/16 03:14:30;;;;;;;2.70;2.50;;;;;;;;;;5038975;28;20303;-71
2022/11/16 03:16:58;;;;;;;2.67;2.47;;;;;;;;;;5038541;28;20260;-70
2022/11/16 03:19:30;;;;;;;2.72;2.40;;;;;;;;;;5038461;28;20214;-70
2022/11/16 03:22:02;;;;;;;2.40;2.20;;;;;;;;;;5038636;28;20206;-70
2022/11/16 03:24:32;;;;;;;2.33;2.13;;;;;;;;;;5038596;28;20607;-70
2022/11/16 03:27:02;;;;;;;2.92;2.50;;;;;;;;;;5038692;28;20213;-70
2022/11/16 03:29:32;;;;;;;2.67;2.47;;;;;;;;;;5038372;28;20536;-70
2022/11/16 03:32:03;;;;;;;2.85;2.65;;;;;;;;;;5038870;28;20574;-70
2022/11/16 03:34:34;;;;;;;2.67;2.47;;;;;;;;;;5038701;28;20598;-70
2022/11/16 03:37:03;;;;;;;2.60;2.40;;;;;;;;;;5038346;28;20293;-70
2022/11/16 03:39:33;;;;;;;2.53;2.20;;;;;;;;;;5038602;28;20381;-70
2022/11/16 03:42:01;;;;;;;2.40;2.20;;;;;;;;;;5038683;28;20453;-71
2022/11/16 03:44:30;;;;;;;2.35;2.20;;;;;;;;;;5038141;28;20211;-70
2022/11/16 03:46:59;;;;;;;2.65;2.45;;;;;;;;;;5037865;28;20548;-70
2022/11/16 03:49:30;;;;;;;2.45;2.25;;;;;;;;;;5037891;28;20213;-71
2022/11/16 03:51:58;;;;;;;2.47;2.28;;;;;;;;;;5037675;28;20209;-70
2022/11/16 03:54:26;;;;;;;2.13;1.98;;;;;;;;;;5038047;28;20288;-70
2022/11/16 03:56:56;;;;;;;2.83;2.63;;;;;;;;;;5053656;28;20245;-70
2022/11/16 03:59:26;;;;;;;2.65;2.42;;;;;;;;;;5057317;28;20256;-70
2022/11/16 04:01:54;;;;;;;2.72;2.53;;;;;;;;;;5057931;28;20637;-71
2022/11/16 04:24:13;;;;;;;2.55;2.35;;;;;;;;;;5031864;28;20292;-71
2022/11/16 04:29:27;;;;;;;2.50;2.30;;;;;;;;;;5056027;28;20278;-70
2022/11/16 04:37:52;;;;;;;2.65;2.45;;;;;;;;;;4995801;28;20226;-70
2022/11/16 04:40:20;;;;;;;2.53;2.33;;;;;;;;;;5047988;28;20204;-71
2022/11/16 04:42:52;;;;;;;2.40;2.20;;;;;;;;;;5057173;28;20296;-70
2022/11/16 04:48:05;;;;;;;2.60;2.40;;;;;;;;;;5056647;28;20196;-71
2022/11/16 04:50:33;;;;;;;2.50;2.30;;;;;;;;;;5057239;28;20201;-70
2022/11/16 04:53:02;;;;;;;2.35;2.15;;;;;;;;;;5057420;28;20554;-70
2022/11/16 04:55:30;;;;;;;2.40;2.20;;;;;;;;;;5056789;28;20204;-70
2022/11/16 04:57:58;;;;;;;2.47;2.28;;;;;;;;;;5057021;28;20231;-70
2022/11/16 05:00:25;;;;;;;2.70;2.50;;;;;;;;;;5057039;28;20323;-70
2022/11/16 05:02:53;;;;;;;2.38;2.17;;;;;;;;;;5057098;28;20217;-70
2022/11/16 05:05:20;;;;;;;2.50;2.30;;;;;;;;;;5057144;28;20205;-70
2022/11/16 05:07:48;;;;;;;2.50;2.30;;;;;;;;;;5056796;28;20490;-70
2022/11/16 05:10:17;;;;;;;2.42;2.22;;;;;;;;;;5057220;28;20208;-70
2022/11/16 05:12:44;;;;;;;2.00;1.90;;;;;;;;;;5056478;28;20220;-70
2022/11/16 05:15:12;;;;;;;2.40;2.20;;;;;;;;;;5056940;28;20223;-71
2022/11/16 05:17:39;;;;;;;2.22;2.13;;;;;;;;;;5056529;28;20299;-70
2022/11/16 05:22:55;;;;;;;2.03;1.92;;;;;;;;;;5056108;28;20292;-70
2022/11/16 05:25:24;;;;;;;2.25;2.15;;;;;;;;;;5056858;28;20215;-71
2022/11/16 05:27:51;;;;;;;2.17;2.08;;;;;;;;;;5056845;28;20241;-70
2022/11/16 05:30:19;;;;;;;2.30;2.10;;;;;;;;;;5056434;28;20221;-71
2022/11/16 05:32:46;;;;;;;2.47;2.28;;;;;;;;;;5056818;28;20244;-70
2022/11/16 05:35:14;;;;;;;2.50;2.30;;;;;;;;;;5056854;28;20205;-70
2022/11/16 05:37:41;;;;;;;2.35;2.15;;;;;;;;;;5056492;28;20215;-70
2022/11/16 05:40:09;;;;;;;2.47;2.28;;;;;;;;;;5056436;28;20280;-71
2022/11/16 05:42:37;;;;;;;2.60;2.40;;;;;;;;;;5059817;28;20209;-70
2022/11/16 05:45:05;;;;;;;2.25;2.10;;;;;;;;;;5060462;28;20216;-71
2022/11/16 05:47:33;;;;;;;2.30;2.10;;;;;;;;;;5060212;28;20207;-70
2022/11/16 05:50:00;;;;;;;2.10;2.00;;;;;;;;;;5059958;28;20471;-70
2022/11/16 05:52:28;;;;;;;2.50;2.30;;;;;;;;;;5060324;28;20212;-71
2022/11/16 05:54:55;;;;;;;2.17;2.08;;;;;;;;;;5059483;28;20199;-70
2022/11/16 05:57:25;;;;;;;2.20;2.10;;;;;;;;;;5059232;28;20201;-70
2022/11/16 05:59:59;;;;;;;2.75;2.55;;;;;;;;;;5059559;28;20339;-70
2022/11/16 06:02:27;;;;;;;1.92;1.83;;;;;;;;;;5059509;28;20205;-70
2022/11/16 06:04:55;;;;;;;2.38;2.17;;;;;;;;;;5059398;28;20231;-70
2022/11/16 06:07:22;;;;;;;1.90;1.80;;;;;;;;;;5059756;28;20483;-70
2022/11/16 06:09:49;;;;;;;2.20;2.10;;;;;;;;;;5059832;28;20201;-71
2022/11/16 06:12:17;;;;;;;2.00;1.90;;;;;;;;;;5059182;28;20594;-70
2022/11/16 06:14:44;;;;;;;2.20;2.10;;;;;;;;;;5059881;28;20472;-70
2022/11/16 06:17:14;;;;;;;2.30;2.20;;;;;;;;;;5059710;28;20708;-70
2022/11/16 06:19:41;;;;;;;2.33;2.13;;;;;;;;;;5059349;28;20229;-70
2022/11/16 06:22:08;;;;;;;2.20;2.10;;;;;;;;;;5059473;28;20216;-70
2022/11/16 06:24:36;;;;;;;2.10;2.00;;;;;;;;;;5059264;28;20204;-71
2022/11/16 06:27:03;;;;;;;2.30;2.10;;;;;;;;;;5059272;28;20205;-70
2022/11/16 06:29:31;;;;;;;2.28;2.13;;;;;;;;;;5059567;28;20211;-70
2022/11/16 06:31:58;;;;;;;2.17;1.92;;;;;;;;;;5059236;28;20221;-70
2022/11/16 06:34:27;;;;;;;2.00;1.90;;;;;;;;;;5059182;28;20227;-70
2022/11/16 06:36:54;;;;;;;2.10;1.90;;;;;;;;;;5059464;28;20597;-70
2022/11/16 06:39:21;;;;;;;2.30;2.20;;;;;;;;;;5059200;28;20243;-71
2022/11/16 06:41:49;;;;;;;2.35;2.15;;;;;;;;;;5059107;28;20215;-70
2022/11/16 06:44:16;;;;;;;2.30;2.10;;;;;;;;;;5059062;28;20204;-70
2022/11/16 06:46:44;;;;;;;2.30;2.10;;;;;;;;;;5059179;28;20205;-70
2022/11/16 06:49:11;;;;;;;2.25;2.05;;;;;;;;;;5058840;28;20201;-71
2022/11/16 06:51:40;;;;;;;2.22;2.10;;;;;;;;;;5059019;28;20209;-70
2022/11/16 06:54:07;;;;;;;2.30;2.10;;;;;;;;;;5058478;28;20205;-70
2022/11/16 06:56:35;;;;;;;2.13;1.98;;;;;;;;;;5059086;28;20213;-71
2022/11/16 06:59:02;;;;;;;1.90;1.80;;;;;;;;;;5058369;28;20335;-70
2022/11/16 07:01:30;;;;;;;1.92;1.83;;;;;;;;;;5057816;28;20204;-70
2022/11/16 07:03:57;;;;;;;2.50;2.30;;;;;;;;;;5058020;28;20235;-71
2022/11/16 07:06:24;;;;;;;2.30;2.10;;;;;;;;;;5058963;28;20205;-69
2022/11/16 07:08:53;;;;;;;2.40;2.20;;;;;;;;;;5058683;28;20602;-70
2022/11/16 07:11:21;;;;;;;2.50;2.03;;;;;;;;;;5058417;28;20227;-71
2022/11/16 07:13:48;;;;;;;2.20;2.00;;;;;;;;;;5058572;28;20216;-70
2022/11/16 07:16:15;;;;;;;2.30;2.10;;;;;;;;;;5058206;28;20212;-71
2022/11/16 07:18:43;;;;;;;2.25;2.08;;;;;;;;;;5058015;28;20255;-70
2022/11/16 07:21:11;;;;;;;2.00;1.90;;;;;;;;;;5058069;28;20205;-70
2022/11/16 07:23:38;;;;;;;2.10;2.00;;;;;;;;;;5058186;28;20205;-70
2022/11/16 07:26:08;;;;;;;1.80;1.70;;;;;;;;;;5058027;28;20205;-70
2022/11/16 07:28:37;;;;;;;2.10;1.90;;;;;;;;;;5057558;28;20241;-70
2022/11/16 07:31:05;;;;;;;2.15;2.00;;;;;;;;;;5058378;28;20205;-70
2022/11/16 07:33:33;;;;;;;2.55;2.35;;;;;;;;;;5058324;28;20220;-71
2022/11/16 07:36:01;;;;;;;2.25;2.15;;;;;;;;;;5058024;28;20205;-70
2022/11/16 07:38:29;;;;;;;2.40;2.13;;;;;;;;;;5058259;28;20216;-71
2022/11/16 07:41:00;;;;;;;1.92;1.83;;;;;;;;;;5057972;28;20600;-71
2022/11/16 07:43:30;;;;;;;2.22;2.03;;;;;;;;;;5057443;28;20205;-70
2022/11/16 07:45:57;;;;;;;1.83;1.73;;;;;;;;;;5057807;28;20510;-70
2022/11/16 07:48:25;;;;;;;2.08;1.90;;;;;;;;;;5057386;28;20308;-70
2022/11/16 07:50:52;;;;;;;2.28;2.08;;;;;;;;;;5057504;28;20209;-70
2022/11/16 07:53:20;;;;;;;2.30;2.10;;;;;;;;;;5057612;28;20211;-70
2022/11/16 07:55:52;;;;;;;2.20;2.10;;;;;;;;;;5057079;28;20205;-70
2022/11/16 07:58:19;;;;;;;2.10;2.00;;;;;;;;;;5056725;28;20216;-70
2022/11/16 08:00:48;;;;;;;2.00;1.90;;;;;;;;;;5057510;28;20231;-70
2022/11/16 08:03:16;;;;;;;2.45;2.28;;;;;;;;;;5057002;28;20205;-70
2022/11/16 08:05:43;;;;;;;2.25;2.05;;;;;;;;;;5057269;28;20232;-70
2022/11/16 08:08:11;;;;;;;2.10;2.00;;;;;;;;;;5057091;28;20213;-70
2022/11/16 08:10:38;;;;;;;2.10;2.00;;;;;;;;;;5057299;28;20201;-70
2022/11/16 08:13:06;;;;;;;2.60;2.40;;;;;;;;;;5057567;28;20597;-70
2022/11/16 08:15:33;;;;;;;2.30;2.13;;;;;;;;;;5057520;28;20296;-70
2022/11/16 08:18:02;;;;;;;3.08;2.30;;;;;;;;;;5057734;28;20227;-70
2022/11/16 08:20:30;;;;;;;2.67;2.20;;;;;;;;;;5056955;28;20633;-70
2022/11/16 08:22:59;;;;;;;2.42;1.90;;;;;;;;;;5057162;28;20207;-70
2022/11/16 08:25:27;;;;;;;2.60;2.10;;;;;;;;;;5057024;28;20201;-70
2022/11/16 08:27:54;;;;;;;2.53;2.25;;;;;;;;;;5057203;28;20209;-70
2022/11/16 08:30:21;;;;;;;2.30;2.10;;;;;;;;;;5057308;28;20201;-70
2022/11/16 08:32:49;;;;;;;3.03;2.15;;;;;;;;;;5057064;28;20220;-70
2022/11/16 08:35:18;;;;;;;2.35;1.90;;;;;;;;;;5057142;28;20215;-70
2022/11/16 08:37:46;;;;;;;3.28;2.10;;;;;;;;;;5057113;28;20217;-71
2022/11/16 08:40:14;;;;;;;2.70;2.00;;;;;;;;;;5057003;28;20224;-71
2022/11/16 08:42:41;;;;;;;1.92;1.83;;;;;;;;;;5056325;28;20205;-71
2022/11/16 08:45:09;;;;;;;2.13;1.98;;;;;;;;;;5056755;28;20215;-70
2022/11/16 08:47:37;;;;;;;2.50;2.08;;;;;;;;;;5057103;28;20211;-70
2022/11/16 08:50:05;;;;;;;2.38;2.17;;;;;;;;;;5056821;28;20251;-70
2022/11/16 08:52:34;;;;;;;2.10;1.90;;;;;;;;;;5056810;28;20570;-70
2022/11/16 08:55:01;;;;;;;3.03;2.00;;;;;;;;;;5056332;28;20589;-70
2022/11/16 08:57:28;;;;;;;2.30;2.10;;;;;;;;;;5057057;28;20205;-70
2022/11/16 08:59:56;;;;;;;2.20;2.10;;;;;;;;;;5056455;28;20248;-71
2022/11/16 09:02:24;;;;;;;2.33;2.13;;;;;;;;;;5056310;28;20208;-71
2022/11/16 09:04:52;;;;;;;2.05;1.95;;;;;;;;;;5056459;28;20266;-70
2022/11/16 09:07:19;;;;;;;2.08;1.98;;;;;;;;;;5056506;28;20205;-70
2022/11/16 09:09:48;;;;;;;2.20;2.00;;;;;;;;;;5056855;28;20308;-70
2022/11/16 09:12:15;;;;;;;3.08;1.92;;;;;;;;;;5056399;28;20216;-71
2022/11/16 09:14:42;;;;;;;2.17;1.98;;;;;;;;;;5056184;28;20295;-71
2022/11/16 09:17:10;;;;;;;2.30;2.10;;;;;;;;;;5058363;28;20534;-71
2022/11/16 09:19:37;;;;;;;2.40;2.20;;;;;;;;;;5059925;28;20341;-70
2022/11/16 09:22:05;;;;;;;1.85;1.75;;;;;;;;;;5059975;28;20197;-70
2022/11/16 09:24:33;;;;;;;2.40;2.20;;;;;;;;;;5061098;28;20215;-70
2022/11/16 09:27:02;;;;;;;2.15;2.00;;;;;;;;;;5059968;28;20211;-70
2022/11/16 09:29:29;;;;;;;2.30;2.20;;;;;;;;;;5059494;28;20207;-70
2022/11/16 09:31:57;;;;;;;2.40;2.10;;;;;;;;;;5059284;28;20541;-70
2022/11/16 09:34:25;;;;;;;2.15;2.00;;;;;;;;;;5059465;28;20581;-71
2022/11/16 09:36:52;;;;;;;2.13;2.00;;;;;;;;;;5059377;28;20209;-70
2022/11/16 09:39:19;;;;;;;2.40;2.20;;;;;;;;;;5059767;28;20614;-70
2022/11/16 09:42:05;;;;;;;2.05;1.80;;;;;;;;;;5059289;28;20215;-70
2022/11/16 09:44:45;;;;;;;2.72;2.42;;;;;;;;;;5056384;28;20209;-70
2022/11/16 09:47:15;;;;;;;2.38;2.17;;;;;;;;;;5059962;28;20204;-70
2022/11/16 09:49:44;;;;;;;2.05;1.95;;;;;;;;;;5059743;28;20220;-70
2022/11/16 09:52:16;;;;;;;2.25;2.05;;;;;;;;;;5059543;28;20250;-70
2022/11/16 09:54:44;;;;;;;2.40;2.20;;;;;;;;;;5059350;28;20200;-70
2022/11/16 09:57:13;;;;;;;23.65;20.88;;;;;;;;;;5059309;28;20205;-70
2022/11/16 09:59:45;;;;;;;40.45;35.20;;;;;;;;;;5059152;28;20237;-71
2022/11/16 10:02:19;;;;;;;27.92;23.40;;;;;;;;;;5059529;28;20570;-70
2022/11/16 10:04:49;;;;;;;21.77;18.83;;;;;;;;;;5059276;28;20213;-70
2022/11/16 10:07:17;;;;;;;21.33;18.45;;;;;;;;;;5059112;28;20205;-71
2022/11/16 10:09:46;;;;;;;19.52;17.52;;;;;;;;;;5058812;28;20201;-71
2022/11/16 10:12:17;;;;;;;18.15;16.25;;;;;;;;;;5058737;28;20205;-70
2022/11/16 10:15:08;;;;;;;17.30;15.48;;;;;;;;;;5059048;28;20205;-70
2022/11/16 10:17:46;;;;;;;16.23;14.55;;;;;;;;;;5058416;28;20201;-71
2022/11/16 10:20:32;;;;;;;15.35;13.05;;;;;;;;;;5058732;28;20252;-70
2022/11/16 10:23:06;;;;;;;14.18;12.68;;;;;;;;;;5058740;28;20213;-70
2022/11/16 10:25:38;;;;;;;14.05;12.60;;;;;;;;;;5058348;28;20204;-70
2022/11/16 10:28:14;;;;;;;13.00;11.70;;;;;;;;;;5056961;28;20209;-70
2022/11/16 10:30:47;;;;;;;11.90;10.60;;;;;;;;;;5058697;28;20562;-70
2022/11/16 10:33:17;;;;;;;11.55;10.35;;;;;;;;;;5058870;28;20205;-70
2022/11/16 10:35:46;;;;;;;11.40;10.20;;;;;;;;;;5058496;28;20197;-70
2022/11/16 10:38:14;;;;;;;10.95;9.85;;;;;;;;;;5058755;28;20478;-70
2022/11/16 10:40:43;;;;;;;13.18;9.65;;;;;;;;;;5058682;28;20225;-70
2022/11/16 10:43:13;;;;;;;9.88;8.88;;;;;;;;;;5044838;28;20259;-71
2022/11/16 10:45:47;;;;;;;14.10;8.52;;;;;;;;;;5048654;28;20459;-70
2022/11/16 10:48:25;;;;;;;8.80;7.90;;;;;;;;;;5058239;28;20205;-70
2022/11/16 10:50:53;;;;;;;9.07;8.18;;;;;;;;;;5047232;28;20595;-71
2022/11/16 10:53:27;;;;;;;8.20;7.03;;;;;;;;;;5057540;28;20311;-71
2022/11/16 10:56:01;;;;;;;8.40;7.50;;;;;;;;;;5057824;28;20546;-70
2022/11/16 10:58:48;;;;;;;8.85;7.18;;;;;;;;;;5058050;28;20204;-70
2022/11/16 11:01:27;;;;;;;8.43;7.32;;;;;;;;;;5057755;28;20229;-70
2022/11/16 11:03:55;;;;;;;7.50;6.70;;;;;;;;;;5058424;28;20211;-71
2022/11/16 11:06:23;;;;;;;6.90;6.20;;;;;;;;;;5058180;28;20792;-70
2022/11/16 11:08:51;;;;;;;8.38;6.90;;;;;;;;;;5057117;28;20205;-71
2022/11/16 11:14:10;;;;;;;9.23;7.63;;;;;;;;;;5057314;28;20192;-71
2022/11/16 11:16:40;;;;;;;11.50;8.15;;;;;;;;;;5057878;28;20208;-70
2022/11/16 11:19:20;;;;;;;7.65;6.93;;;;;;;;;;5057391;28;20267;-71
2022/11/16 11:21:48;;;;;;;8.00;7.20;;;;;;;;;;5057409;28;20202;-70
2022/11/16 11:24:17;;;;;;;8.43;6.63;;;;;;;;;;5057626;28;20223;-70
2022/11/16 11:26:49;;;;;;;7.78;6.00;;;;;;;;;;5057486;28;20577;-70
2022/11/16 11:29:21;;;;;;;6.18;5.68;;;;;;;;;;5057542;28;20205;-70
2022/11/16 11:31:51;;;;;;;7.88;5.90;;;;;;;;;;5057815;28;20205;-70
2022/11/16 11:34:19;;;;;;;6.65;6.00;;;;;;;;;;5057928;28;20217;-70
2022/11/16 11:36:48;;;;;;;7.55;5.68;;;;;;;;;;5056687;28;20205;-70
2022/11/16 11:39:29;;;;;;;6.75;6.05;;;;;;;;;;5041279;28;20281;-71
2022/11/16 11:42:05;;;;;;;5.97;5.45;;;;;;;;;;5036056;28;20202;-70
2022/11/16 11:44:36;;;;;;;6.43;5.13;;;;;;;;;;5037366;28;20209;-70
2022/11/16 11:47:11;;;;;;;7.47;5.15;;;;;;;;;;5036921;28;20206;-71
2022/11/16 11:49:41;;;;;;;5.88;4.95;;;;;;;;;;5036744;28;20212;-70
2022/11/16 11:52:12;;;;;;;8.68;5.07;;;;;;;;;;5036413;28;20267;-70
2022/11/16 11:54:45;;;;;;;5.57;4.57;;;;;;;;;;5036367;28;20206;-70
2022/11/16 11:57:15;;;;;;;6.30;4.80;;;;;;;;;;5036388;28;20217;-70
2022/11/16 11:59:42;;;;;;;6.10;4.35;;;;;;;;;;5036292;28;20244;-70
2022/11/16 12:02:22;;;;;;;4.55;4.05;;;;;;;;;;5036267;28;20206;-70
2022/11/16 12:05:14;;;;;;;5.40;3.85;;;;;;;;;;5037357;28;20228;-70
2022/11/16 12:07:48;;;;;;;5.15;4.18;;;;;;;;;;5017168;28;20272;-70
2022/11/16 12:10:19;;;;;;;4.32;3.90;;;;;;;;;;5035634;28;20211;-70
2022/11/16 12:12:54;;;;;;;5.90;4.15;;;;;;;;;;5036019;28;20206;-70
2022/11/16 12:15:32;;;;;;;5.38;3.70;;;;;;;;;;5036034;28;20205;-70
2022/11/16 12:18:09;;;;;;;4.53;3.90;;;;;;;;;;5035259;28;20205;-70
2022/11/16 12:20:43;;;;;;;3.22;3.00;;;;;;;;;;5035989;28;20229;-70
2022/11/16 12:23:22;;;;;;;3.78;3.47;;;;;;;;;;5035812;28;20217;-70
2022/11/16 12:25:54;;;;;;;7.22;3.72;;;;;;;;;;5036394;28;20197;-70
2022/11/16 12:28:30;;;;;;;4.97;3.63;;;;;;;;;;5035307;28;20209;-70
2022/11/16 12:31:02;;;;;;;3.83;3.53;;;;;;;;;;5035717;28;20201;-71
2022/11/16 12:33:37;;;;;;;3.40;3.10;;;;;;;;;;5035525;28;20233;-70
2022/11/16 12:36:09;;;;;;;3.28;3.00;;;;;;;;;;5035484;28;20205;-70
2022/11/16 12:38:54;;;;;;;3.50;3.10;;;;;;;;;;5035449;28;20271;-70
2022/11/16 12:41:36;;;;;;;4.18;3.03;;;;;;;;;;5034359;28;20239;-70
2022/11/16 12:44:06;;;;;;;4.00;3.10;;;;;;;;;;5035293;28;20206;-70
2022/11/16 12:46:40;;;;;;;3.40;3.03;;;;;;;;;;5035591;28;20219;-70
2022/11/16 12:49:40;;;;;;;3.35;3.05;;;;;;;;;;5035823;28;20470;-70
2022/11/16 12:52:14;;;;;;;3.20;2.90;;;;;;;;;;4954024;29;20215;-70
2022/11/16 12:54:53;;;;;;;3.13;2.83;;;;;;;;;;4955669;28;20200;-70
2022/11/16 12:57:24;;;;;;;2.92;2.72;;;;;;;;;;5001015;28;20212;-70
2022/11/16 13:00:05;;;;;;;4.95;2.90;;;;;;;;;;5035250;28;20714;-70
2022/11/16 13:02:39;;;;;;;4.30;2.90;;;;;;;;;;5034882;28;20205;-70
2022/11/16 13:05:14;;;;;;;3.55;2.50;;;;;;;;;;5035113;28;20204;-70
2022/11/16 13:07:44;;;;;;;3.35;2.60;;;;;;;;;;5034556;28;20205;-70
2022/11/16 13:10:16;;;;;;;3.13;2.83;;;;;;;;;;5034927;28;20206;-70
2022/11/16 13:12:46;;;;;;;2.75;2.55;;;;;;;;;;5035205;28;20786;-70
2022/11/16 13:15:18;;;;;;;2.83;2.63;;;;;;;;;;5034975;28;20231;-70
2022/11/16 13:17:48;;;;;;;2.75;2.55;;;;;;;;;;5034970;28;20205;-70
2022/11/16 13:20:24;;;;;;;2.70;2.50;;;;;;;;;;5034784;28;20286;-70
2022/11/16 13:22:56;;;;;;;2.83;2.60;;;;;;;;;;5035538;28;20220;-70
2022/11/16 13:25:26;;;;;;;2.70;2.50;;;;;;;;;;5034840;28;20706;-70
2022/11/16 13:27:56;;;;;;;2.92;2.40;;;;;;;;;;5034805;28;20205;-70
2022/11/16 13:30:25;;;;;;;2.58;2.38;;;;;;;;;;5034484;28;20202;-70
2022/11/16 13:33:11;;;;;;;2.90;2.60;;;;;;;;;;5035100;28;20218;-70
2022/11/16 13:35:39;;;;;;;3.58;2.85;;;;;;;;;;5034775;28;20608;-70
2022/11/16 13:38:12;;;;;;;8.27;6.90;;;;;;;;;;5035166;28;20289;-70
2022/11/16 13:40:40;;;;;;;6.65;5.95;;;;;;;;;;5034634;28;20685;-70
2022/11/16 13:43:15;;;;;;;5.53;4.93;;;;;;;;;;5034826;28;20205;-70
2022/11/16 13:45:45;;;;;;;5.18;4.63;;;;;;;;;;5035381;28;20205;-70
2022/11/16 13:48:18;;;;;;;6.13;4.88;;;;;;;;;;5034727;28;20632;-70
2022/11/16 13:50:50;;;;;;;6.38;4.70;;;;;;;;;;5034346;28;20213;-70
2022/11/16 13:53:25;;;;;;;5.93;4.57;;;;;;;;;;5034217;28;20206;-70
2022/11/16 13:55:55;;;;;;;5.35;4.55;;;;;;;;;;5033914;28;20205;-70
2022/11/16 13:58:24;;;;;;;6.75;5.00;;;;;;;;;;5034794;28;20227;-70
2022/11/16 14:00:56;;;;;;;6.68;4.95;;;;;;;;;;5034419;28;20226;-70
2022/11/16 14:03:28;;;;;;;7.65;4.97;;;;;;;;;;5036739;28;20213;-70
2022/11/16 14:05:55;;;;;;;7.25;4.72;;;;;;;;;;5038147;28;20217;-70
2022/11/16 14:08:41;;;;;;;7.53;4.88;;;;;;;;;;5039099;28;20496;-70
2022/11/16 14:11:24;;;;;;;7.55;4.60;;;;;;;;;;5038307;28;20201;-70
2022/11/16 14:13:52;;;;;;;6.22;4.57;;;;;;;;;;5038192;28;20213;-70
2022/11/16 14:16:43;;;;;;;6.75;4.40;;;;;;;;;;5038598;28;20212;-70
2022/11/16 14:19:25;;;;;;;6.32;4.20;;;;;;;;;;5038071;28;20205;-70
2022/11/16 14:21:57;;;;;;;5.82;4.43;;;;;;;;;;5037530;28;20232;-70
2022/11/16 14:24:28;;;;;;;6.00;4.10;;;;;;;;;;5037909;28;20237;-70
2022/11/16 14:27:01;;;;;;;6.78;4.72;;;;;;;;;;5038343;28;20261;-71
2022/11/16 14:29:49;;;;;;;7.72;4.30;;;;;;;;;;5038313;28;20284;-70
2022/11/16 14:32:22;;;;;;;6.25;4.18;;;;;;;;;;5032335;28;20204;-71
2022/11/16 14:34:51;;;;;;;4.47;4.03;;;;;;;;;;5038572;28;20220;-70
2022/11/16 14:37:30;;;;;;;6.22;4.00;;;;;;;;;;5038006;28;20198;-70
2022/11/16 14:40:02;;;;;;;5.70;4.00;;;;;;;;;;5037813;28;20271;-70
2022/11/16 14:42:32;;;;;;;12.20;8.90;;;;;;;;;;5037580;28;20226;-71
2022/11/16 14:45:01;;;;;;;13.48;9.38;;;;;;;;;;5037086;28;20587;-71
2022/11/16 14:47:31;;;;;;;10.68;8.18;;;;;;;;;;5037285;28;20216;-71
2022/11/16 14:49:58;;;;;;;12.05;7.53;;;;;;;;;;5036300;28;20209;-71
2022/11/16 14:52:29;;;;;;;9.93;7.85;;;;;;;;;;5035619;28;20197;-71
2022/11/16 14:54:59;;;;;;;10.65;7.78;;;;;;;;;;5036336;28;20214;-71
2022/11/16 14:57:27;;;;;;;10.68;7.45;;;;;;;;;;5036990;28;20213;-71
2022/11/16 15:00:07;;;;;;;7.68;6.38;;;;;;;;;;5036794;28;20291;-71
2022/11/16 15:02:36;;;;;;;10.20;6.32;;;;;;;;;;5041732;28;20220;-71
2022/11/16 15:05:03;;;;;;;8.85;6.50;;;;;;;;;;5045991;28;20220;-71
2022/11/16 15:07:31;;;;;;;9.93;6.05;;;;;;;;;;5037520;28;20205;-71
2022/11/16 15:09:59;;;;;;;8.38;6.35;;;;;;;;;;5037718;28;20205;-71
2022/11/16 15:12:50;;;;;;;7.95;6.13;;;;;;;;;;5037624;28;20259;-71
2022/11/16 15:15:20;;;;;;;8.35;5.82;;;;;;;;;;5037213;28;20216;-71
2022/11/16 15:18:06;;;;;;;8.23;5.60;;;;;;;;;;5037161;28;20225;-71
2022/11/16 15:20:36;;;;;;;8.05;5.45;;;;;;;;;;5040053;28;20425;-71
2022/11/16 15:23:05;;;;;;;7.32;5.85;;;;;;;;;;5039149;28;20252;-72
2022/11/16 15:25:36;;;;;;;7.88;5.45;;;;;;;;;;5039478;28;20205;-71
2022/11/16 15:28:05;;;;;;;6.82;5.47;;;;;;;;;;5040085;28;20212;-72
2022/11/16 15:30:35;;;;;;;6.07;4.90;;;;;;;;;;5042773;28;20213;-72
2022/11/16 15:33:06;;;;;;;7.40;5.10;;;;;;;;;;5039258;28;20198;-71
2022/11/16 15:35:40;;;;;;;6.85;5.15;;;;;;;;;;5039086;28;20259;-72
2022/11/16 15:38:14;;;;;;;8.93;4.93;;;;;;;;;;5035526;28;20283;-72
2022/11/16 15:40:43;;;;;;;7.03;4.72;;;;;;;;;;5036553;28;20201;-72
2022/11/16 15:43:11;;;;;;;7.85;5.25;;;;;;;;;;5035874;28;20275;-72